createdAt,value
2018-10-02T00:01:55.441Z,9.70
2018-10-02T00:04:24.468Z,9.80
2018-10-02T00:06:53.668Z,9.80
2018-10-02T00:09:22.880Z,9.80
2018-10-02T00:11:57.519Z,9.90
2018-10-02T00:14:30.316Z,9.90
2018-10-02T00:16:59.826Z,9.90
2018-10-02T00:19:29.355Z,9.90
2018-10-02T00:21:59.430Z,9.90
2018-10-02T00:24:28.734Z,9.80
2018-10-02T00:26:58.287Z,9.80
2018-10-02T00:29:27.649Z,9.70
2018-10-02T00:31:56.965Z,9.70
2018-10-02T00:34:26.385Z,9.60
2018-10-02T00:36:55.451Z,9.50
2018-10-02T00:39:24.725Z,9.40
2018-10-02T00:41:53.756Z,9.50
2018-10-02T00:44:22.804Z,9.50
2018-10-02T00:46:51.810Z,9.50
2018-10-02T00:49:20.838Z,9.50
2018-10-02T00:51:50.139Z,9.60
2018-10-02T00:54:19.116Z,9.50
2018-10-02T00:56:48.123Z,9.50
2018-10-02T00:59:17.402Z,9.50
2018-10-02T01:01:46.629Z,9.40
2018-10-02T01:04:15.637Z,9.40
2018-10-02T01:06:44.700Z,9.50
2018-10-02T01:09:13.923Z,9.50
2018-10-02T01:11:43.612Z,9.60
2018-10-02T01:14:13.039Z,9.40
2018-10-02T01:16:42.104Z,9.40
2018-10-02T01:19:11.186Z,9.40
2018-10-02T01:21:40.262Z,9.40
2018-10-02T01:24:09.223Z,9.40
2018-10-02T01:26:38.440Z,9.40
2018-10-02T01:29:07.609Z,9.40
2018-10-02T01:31:36.587Z,9.40
2018-10-02T01:34:05.856Z,9.40
2018-10-02T01:36:34.970Z,9.50
2018-10-02T01:39:05.420Z,9.50
2018-10-02T01:41:34.445Z,9.50
2018-10-02T01:44:03.503Z,9.40
2018-10-02T01:46:32.592Z,9.40
2018-10-02T01:49:01.551Z,9.40
2018-10-02T01:51:30.628Z,9.30
2018-10-02T01:53:59.872Z,9.30
2018-10-02T01:56:29.037Z,9.20
2018-10-02T01:58:58.623Z,9.20
2018-10-02T02:01:27.637Z,9.20
2018-10-02T02:03:56.962Z,9.20
2018-10-02T02:06:25.967Z,9.20
2018-10-02T02:08:55.048Z,9.10
2018-10-02T02:11:24.012Z,9.10
2018-10-02T02:13:53.143Z,9.10
2018-10-02T02:16:22.113Z,9.20
2018-10-02T02:18:51.420Z,9.20
2018-10-02T02:21:20.446Z,9.20
2018-10-02T02:23:49.413Z,9.20
2018-10-02T02:26:18.398Z,9.20
2018-10-02T02:28:47.532Z,9.30
2018-10-02T02:31:16.678Z,9.30
2018-10-02T02:33:45.765Z,9.30
2018-10-02T02:36:14.828Z,9.30
2018-10-02T02:38:43.798Z,9.30
2018-10-02T02:41:12.783Z,9.30
2018-10-02T02:43:41.793Z,9.30
2018-10-02T02:46:10.779Z,9.30
2018-10-02T02:48:44.972Z,9.30
2018-10-02T02:51:21.135Z,9.30
2018-10-02T02:53:50.238Z,9.30
2018-10-02T02:56:19.206Z,9.30
2018-10-02T02:58:48.485Z,9.30
2018-10-02T03:01:17.516Z,9.30
2018-10-02T03:03:46.569Z,9.30
2018-10-02T03:06:15.857Z,9.30
2018-10-02T03:08:44.982Z,9.30
2018-10-02T03:11:13.969Z,9.30
2018-10-02T03:13:43.572Z,9.30
2018-10-02T03:16:12.673Z,9.30
2018-10-02T03:18:41.758Z,9.20
2018-10-02T03:21:10.793Z,9.20
2018-10-02T03:23:39.833Z,9.20
2018-10-02T03:26:09.220Z,9.20
2018-10-02T03:28:38.568Z,9.20
2018-10-02T03:31:07.714Z,9.20
2018-10-02T03:33:36.732Z,9.20
2018-10-02T03:36:06.005Z,9.20
2018-10-02T03:38:35.062Z,9.20
2018-10-02T03:41:04.309Z,9.20
2018-10-02T03:43:33.509Z,9.20
2018-10-02T03:46:02.782Z,9.20
2018-10-02T03:48:31.975Z,9.10
2018-10-02T03:51:01.267Z,9.10
2018-10-02T03:53:30.330Z,9.10
2018-10-02T03:55:59.687Z,9.10
2018-10-02T03:58:28.698Z,9.10
2018-10-02T04:00:57.818Z,9.10
2018-10-02T04:03:27.050Z,9.00
2018-10-02T04:05:56.055Z,9.10
2018-10-02T04:08:25.139Z,9.10
2018-10-02T04:10:54.187Z,9.20
2018-10-02T04:13:23.403Z,9.20
2018-10-02T04:15:52.789Z,9.20
2018-10-02T04:18:21.817Z,9.20
2018-10-02T04:20:51.061Z,9.10
2018-10-02T04:23:20.505Z,9.20
2018-10-02T04:25:49.839Z,9.20
2018-10-02T04:28:18.999Z,9.10
2018-10-02T04:30:48.128Z,9.20
2018-10-02T04:33:17.296Z,9.30
2018-10-02T04:35:46.485Z,9.30
2018-10-02T04:38:15.531Z,9.30
2018-10-02T04:40:44.545Z,9.20
2018-10-02T04:43:13.598Z,9.20
2018-10-02T04:45:42.756Z,9.20
2018-10-02T04:48:11.750Z,9.20
2018-10-02T04:50:40.703Z,9.20
2018-10-02T04:53:09.688Z,9.00
2018-10-02T04:55:38.716Z,9.00
2018-10-02T04:58:07.816Z,8.80
2018-10-02T05:00:36.775Z,8.70
2018-10-02T05:03:05.744Z,8.60
2018-10-02T05:05:34.700Z,8.50
2018-10-02T05:08:03.775Z,8.40
2018-10-02T05:10:32.750Z,8.40
2018-10-02T05:13:01.671Z,8.40
2018-10-02T05:15:31.967Z,8.40
2018-10-02T05:18:00.974Z,8.40
2018-10-02T05:20:29.972Z,8.40
2018-10-02T05:22:59.047Z,8.50
2018-10-02T05:25:28.240Z,8.40
2018-10-02T05:27:57.203Z,8.40
2018-10-02T05:30:26.142Z,8.30
2018-10-02T05:32:55.465Z,8.30
2018-10-02T05:35:24.369Z,8.30
2018-10-02T05:37:53.712Z,8.40
2018-10-02T05:40:22.701Z,8.30
2018-10-02T05:42:51.765Z,8.40
2018-10-02T05:45:20.812Z,8.40
2018-10-02T05:47:50.604Z,8.30
2018-10-02T05:50:19.533Z,8.30
2018-10-02T05:52:48.527Z,8.30
2018-10-02T05:55:17.494Z,8.40
2018-10-02T05:57:46.585Z,8.60
2018-10-02T06:00:15.641Z,8.60
2018-10-02T06:02:44.692Z,8.60
2018-10-02T06:05:13.616Z,8.50
2018-10-02T06:07:42.876Z,8.60
2018-10-02T06:10:11.881Z,8.60
2018-10-02T06:12:40.911Z,8.70
2018-10-02T06:15:10.100Z,8.70
2018-10-02T06:17:39.002Z,8.90
2018-10-02T06:20:08.012Z,8.90
2018-10-02T06:22:36.990Z,9.00
2018-10-02T06:25:06.097Z,9.20
2018-10-02T06:27:34.959Z,9.30
2018-10-02T06:30:04.148Z,9.50
2018-10-02T06:32:33.308Z,9.60
2018-10-02T06:35:02.201Z,9.60
2018-10-02T06:37:31.239Z,9.70
2018-10-02T06:40:00.356Z,9.70
2018-10-02T06:42:29.248Z,9.80
2018-10-02T06:44:58.399Z,9.80
2018-10-02T06:47:27.329Z,9.80
2018-10-02T06:49:56.230Z,9.70
2018-10-02T06:52:25.340Z,9.60
2018-10-02T06:54:54.114Z,9.60
2018-10-02T06:57:23.115Z,9.50
2018-10-02T06:59:53.140Z,9.50
2018-10-02T07:02:22.365Z,9.50
2018-10-02T07:04:51.214Z,9.50
2018-10-02T07:07:20.119Z,9.40
2018-10-02T07:09:48.995Z,9.30
2018-10-02T07:12:17.921Z,9.30
2018-10-02T07:14:46.925Z,9.30
2018-10-02T07:17:16.038Z,9.30
2018-10-02T07:19:44.968Z,9.30
2018-10-02T07:22:13.911Z,9.30
2018-10-02T07:24:42.816Z,9.30
2018-10-02T07:27:12.058Z,9.30
2018-10-02T07:29:40.887Z,9.30
2018-10-02T07:32:09.850Z,9.30
2018-10-02T07:34:38.982Z,9.40
2018-10-02T07:37:08.070Z,9.50
2018-10-02T07:39:36.982Z,9.50
2018-10-02T07:42:05.977Z,9.50
2018-10-02T07:44:35.632Z,9.50
2018-10-02T07:47:05.120Z,9.80
2018-10-02T07:49:34.079Z,10.30
2018-10-02T07:52:03.218Z,10.80
2018-10-02T07:54:32.344Z,10.90
2018-10-02T07:57:01.288Z,11.00
2018-10-02T07:59:30.243Z,11.00
2018-10-02T08:01:59.149Z,11.00
2018-10-02T08:04:28.115Z,11.00
2018-10-02T08:06:57.189Z,10.90
2018-10-02T08:09:26.308Z,11.10
2018-10-02T08:11:55.513Z,11.30
2018-10-02T08:14:24.531Z,11.20
2018-10-02T08:16:53.718Z,11.20
2018-10-02T08:19:22.946Z,11.40
2018-10-02T08:21:51.864Z,11.20
2018-10-02T08:24:20.796Z,11.10
2018-10-02T08:26:50.089Z,11.10
2018-10-02T08:29:19.255Z,11.10
2018-10-02T08:31:48.211Z,11.00
2018-10-02T08:34:17.099Z,11.40
2018-10-02T08:36:46.031Z,12.00
2018-10-02T08:39:14.910Z,12.50
2018-10-02T08:41:43.823Z,12.50
2018-10-02T08:44:12.872Z,12.80
2018-10-02T08:46:41.796Z,13.90
2018-10-02T08:49:10.761Z,14.50
2018-10-02T08:51:39.859Z,14.30
2018-10-02T08:54:09.066Z,13.60
2018-10-02T08:56:38.554Z,13.10
2018-10-02T08:59:08.279Z,13.30
2018-10-02T09:01:37.262Z,14.00
2018-10-02T09:04:06.387Z,14.80
2018-10-02T09:06:35.427Z,16.40
2018-10-02T09:09:06.732Z,16.60
2018-10-02T09:11:35.756Z,16.60
2018-10-02T09:14:04.737Z,15.50
2018-10-02T09:16:33.836Z,14.00
2018-10-02T09:19:02.859Z,13.10
2018-10-02T09:21:32.144Z,12.60
2018-10-02T09:24:01.112Z,12.30
2018-10-02T09:26:30.274Z,12.40
2018-10-02T09:28:59.157Z,12.10
2018-10-02T09:31:33.384Z,12.30
2018-10-02T09:34:07.338Z,12.80
2018-10-02T09:36:41.830Z,13.20
2018-10-02T09:39:15.988Z,12.90
2018-10-02T09:41:50.501Z,12.60
2018-10-02T09:44:19.379Z,12.30
2018-10-02T09:46:48.329Z,12.10
2018-10-02T09:49:17.504Z,12.20
2018-10-02T09:51:46.415Z,12.10
2018-10-02T09:54:15.325Z,12.10
2018-10-02T09:56:45.347Z,12.20
2018-10-02T09:59:15.612Z,12.20
2018-10-02T10:01:49.826Z,12.40
2018-10-02T10:04:18.988Z,12.40
2018-10-02T10:06:47.928Z,12.50
2018-10-02T10:09:17.220Z,12.30
2018-10-02T10:11:46.121Z,12.10
2018-10-02T10:14:15.035Z,12.30
2018-10-02T10:16:44.076Z,12.50
2018-10-02T10:19:12.977Z,12.50
2018-10-02T10:21:42.295Z,12.70
2018-10-02T10:24:11.258Z,12.80
2018-10-02T10:26:40.201Z,13.10
2018-10-02T10:29:09.241Z,13.20
2018-10-02T10:31:38.698Z,13.30
2018-10-02T10:34:07.835Z,13.40
2018-10-02T10:36:36.892Z,13.90
2018-10-02T10:39:07.956Z,14.20
2018-10-02T10:41:36.915Z,14.70
2018-10-02T10:44:06.095Z,15.40
2018-10-02T10:46:35.552Z,15.70
2018-10-02T10:49:04.463Z,15.60
2018-10-02T10:51:33.372Z,15.10
2018-10-02T10:54:02.548Z,14.50
2018-10-02T10:56:31.703Z,13.90
2018-10-02T10:59:00.662Z,13.70
2018-10-02T11:01:29.630Z,13.80
2018-10-02T11:03:58.491Z,14.30
2018-10-02T11:06:27.440Z,14.60
2018-10-02T11:08:56.376Z,14.60
2018-10-02T11:11:25.260Z,14.60
2018-10-02T11:13:54.159Z,14.60
2018-10-02T11:16:23.233Z,14.30
2018-10-02T11:18:52.191Z,14.30
2018-10-02T11:21:21.384Z,14.00
2018-10-02T11:23:50.308Z,13.90
2018-10-02T11:26:19.195Z,14.00
2018-10-02T11:28:48.194Z,13.70
2018-10-02T11:31:17.553Z,13.50
2018-10-02T11:33:46.739Z,13.50
2018-10-02T11:36:15.659Z,13.60
2018-10-02T11:38:44.599Z,13.60
2018-10-02T11:41:13.550Z,13.60
2018-10-02T11:43:42.584Z,13.90
2018-10-02T11:46:11.544Z,14.00
2018-10-02T11:48:40.429Z,14.40
2018-10-02T11:51:09.375Z,14.80
2018-10-02T11:53:38.291Z,14.90
2018-10-02T11:56:07.300Z,15.00
2018-10-02T11:58:36.558Z,15.20
2018-10-02T12:01:05.733Z,15.10
2018-10-02T12:03:34.725Z,14.80
2018-10-02T12:06:03.611Z,14.60
2018-10-02T12:08:32.562Z,14.40
2018-10-02T12:11:01.504Z,13.90
2018-10-02T12:13:30.505Z,13.70
2018-10-02T12:15:59.432Z,13.80
2018-10-02T12:18:28.499Z,13.80
2018-10-02T12:20:57.463Z,13.90
2018-10-02T12:23:26.513Z,14.00
2018-10-02T12:25:55.639Z,14.30
2018-10-02T12:28:24.681Z,14.50
2018-10-02T12:30:53.627Z,14.30
2018-10-02T12:33:22.539Z,14.40
2018-10-02T12:35:51.491Z,14.50
2018-10-02T12:38:20.465Z,14.50
2018-10-02T12:40:49.378Z,14.40
2018-10-02T12:43:18.265Z,14.20
2018-10-02T12:45:47.214Z,14.10
2018-10-02T12:48:16.120Z,14.30
2018-10-02T12:50:45.064Z,14.40
2018-10-02T12:53:14.256Z,14.40
2018-10-02T12:55:43.315Z,14.50
2018-10-02T12:58:12.201Z,14.60
2018-10-02T13:00:41.173Z,14.50
2018-10-02T13:03:10.098Z,14.40
2018-10-02T13:05:39.051Z,14.10
2018-10-02T13:08:08.169Z,14.00
2018-10-02T13:10:37.525Z,14.30
2018-10-02T13:13:06.854Z,14.30
2018-10-02T13:15:36.313Z,14.40
2018-10-02T13:18:06.750Z,14.50
2018-10-02T13:20:36.146Z,14.70
2018-10-02T13:23:06.200Z,14.70
2018-10-02T13:25:35.210Z,14.50
2018-10-02T13:28:04.293Z,14.40
2018-10-02T13:30:33.343Z,14.20
2018-10-02T13:33:02.401Z,14.40
2018-10-02T13:35:31.575Z,14.50
2018-10-02T13:38:00.617Z,14.40
2018-10-02T13:40:30.855Z,14.20
2018-10-02T13:43:01.783Z,14.00
2018-10-02T13:45:31.729Z,14.00
2018-10-02T13:48:00.963Z,13.90
2018-10-02T13:50:30.322Z,13.80
2018-10-02T13:52:59.933Z,13.80
2018-10-02T13:55:29.500Z,13.80
2018-10-02T13:57:58.472Z,14.10
2018-10-02T14:00:27.864Z,14.20
2018-10-02T14:02:56.849Z,14.30
2018-10-02T14:05:25.856Z,14.30
2018-10-02T14:07:54.958Z,14.20
2018-10-02T14:10:23.918Z,14.30
2018-10-02T14:12:53.043Z,14.20
2018-10-02T14:15:22.136Z,14.20
2018-10-02T14:17:51.101Z,14.00
2018-10-02T14:20:20.290Z,13.90
2018-10-02T14:22:49.627Z,13.70
2018-10-02T14:25:18.969Z,13.80
2018-10-02T14:27:47.912Z,13.70
2018-10-02T14:30:16.976Z,13.50
2018-10-02T14:32:46.273Z,13.60
2018-10-02T14:35:15.552Z,13.70
2018-10-02T14:37:44.664Z,13.70
2018-10-02T14:40:13.696Z,13.70
2018-10-02T14:42:43.150Z,13.60
2018-10-02T14:45:12.543Z,13.60
2018-10-02T14:47:41.748Z,13.60
2018-10-02T14:50:11.303Z,13.50
2018-10-02T14:52:40.358Z,13.40
2018-10-02T14:55:09.569Z,13.30
2018-10-02T14:57:39.135Z,13.30
2018-10-02T15:00:08.411Z,13.30
2018-10-02T15:02:37.505Z,13.30
2018-10-02T15:05:06.529Z,13.10
2018-10-02T15:07:35.870Z,13.10
2018-10-02T15:10:05.049Z,12.90
2018-10-02T15:12:34.205Z,12.90
2018-10-02T15:15:03.381Z,12.80
2018-10-02T15:17:32.534Z,12.80
2018-10-02T15:20:02.739Z,12.90
2018-10-02T15:22:31.848Z,12.90
2018-10-02T15:25:00.840Z,13.00
2018-10-02T15:27:29.924Z,13.00
2018-10-02T15:29:59.101Z,13.00
2018-10-02T15:32:28.244Z,12.80
2018-10-02T15:34:57.345Z,12.60
2018-10-02T15:37:26.696Z,12.50
2018-10-02T15:39:55.970Z,12.40
2018-10-02T15:42:25.352Z,12.40
2018-10-02T15:44:54.562Z,12.40
2018-10-02T15:47:23.614Z,12.40
2018-10-02T15:49:52.794Z,12.30
2018-10-02T15:52:22.675Z,12.20
2018-10-02T15:54:51.804Z,12.10
2018-10-02T15:57:20.845Z,11.90
2018-10-02T15:59:50.188Z,11.80
2018-10-02T16:02:19.684Z,11.80
2018-10-02T16:04:48.879Z,11.80
2018-10-02T16:07:18.425Z,11.60
2018-10-02T16:09:47.809Z,11.50
2018-10-02T16:12:17.523Z,11.50
2018-10-02T16:14:46.971Z,11.50
2018-10-02T16:17:16.818Z,11.50
2018-10-02T16:19:46.300Z,11.50
2018-10-02T16:22:15.622Z,11.40
2018-10-02T16:24:45.715Z,11.30
2018-10-02T16:27:15.128Z,11.20
2018-10-02T16:29:44.500Z,11.10
2018-10-02T16:32:13.584Z,11.10
2018-10-02T16:34:49.288Z,11.10
2018-10-02T16:37:12.123Z,11.10
2018-10-02T16:39:42.357Z,11.10
2018-10-02T16:42:12.009Z,11.10
2018-10-02T16:44:41.173Z,11.10
2018-10-02T16:47:10.416Z,11.00
2018-10-02T16:49:39.834Z,11.10
2018-10-02T16:52:09.313Z,11.10
2018-10-02T16:54:38.811Z,11.10
2018-10-02T16:57:08.752Z,11.20
2018-10-02T16:59:38.189Z,11.20
2018-10-02T17:02:07.601Z,11.10
2018-10-02T17:04:36.947Z,11.10
2018-10-02T17:07:06.568Z,11.10
2018-10-02T17:09:35.973Z,11.10
2018-10-02T17:12:05.326Z,11.20
2018-10-02T17:14:34.720Z,11.10
2018-10-02T17:17:04.181Z,11.20
2018-10-02T17:19:33.427Z,11.10
2018-10-02T17:22:17.611Z,11.10
2018-10-02T17:24:47.002Z,11.10
2018-10-02T17:27:16.388Z,11.10
2018-10-02T17:29:45.837Z,11.00
2018-10-02T17:32:15.493Z,11.10
2018-10-02T17:34:45.238Z,11.20
2018-10-02T17:37:14.732Z,11.20
2018-10-02T17:39:44.116Z,11.20
2018-10-02T17:42:13.711Z,11.20
2018-10-02T17:44:43.845Z,11.20
2018-10-02T17:47:12.989Z,11.10
2018-10-02T17:49:44.735Z,11.20
2018-10-02T17:52:15.268Z,11.30
2018-10-02T17:54:46.465Z,11.30
2018-10-02T17:57:17.829Z,11.30
2018-10-02T17:59:48.106Z,11.30
2018-10-02T18:02:18.628Z,11.30
2018-10-02T18:04:47.928Z,11.20
2018-10-02T18:07:17.323Z,11.30
2018-10-02T18:09:49.936Z,11.30
2018-10-02T18:12:21.792Z,11.20
2018-10-02T18:14:51.166Z,11.10
2018-10-02T18:17:21.762Z,11.20
2018-10-02T18:19:51.325Z,11.10
2018-10-02T18:22:20.408Z,11.20
2018-10-02T18:24:49.504Z,11.20
2018-10-02T18:27:19.367Z,11.10
2018-10-02T18:29:48.549Z,11.10
2018-10-02T18:32:17.569Z,11.10
2018-10-02T18:34:46.809Z,11.20
2018-10-02T18:37:16.921Z,11.10
2018-10-02T18:39:46.125Z,11.10
2018-10-02T18:42:15.611Z,11.20
2018-10-02T18:44:44.793Z,11.10
2018-10-02T18:47:14.535Z,11.10
2018-10-02T18:49:43.820Z,11.10
2018-10-02T18:52:12.910Z,11.10
2018-10-02T18:54:41.853Z,11.20
2018-10-02T18:57:10.907Z,11.10
2018-10-02T18:59:40.865Z,11.10
2018-10-02T19:02:10.168Z,11.00
2018-10-02T19:04:39.477Z,11.00
2018-10-02T19:07:08.450Z,11.00
2018-10-02T19:09:37.424Z,11.00
2018-10-02T19:12:13.682Z,11.00
2018-10-02T19:14:42.954Z,11.00
2018-10-02T19:17:12.003Z,11.00
2018-10-02T19:19:46.427Z,10.90
2018-10-02T19:22:15.683Z,10.90
2018-10-02T19:24:44.933Z,10.80
2018-10-02T19:27:14.186Z,10.70
2018-10-02T19:29:43.263Z,10.70
2018-10-02T19:32:17.152Z,10.70
2018-10-02T19:34:46.652Z,10.80
2018-10-02T19:37:21.158Z,10.80
2018-10-02T19:39:50.418Z,10.90
2018-10-02T19:42:19.583Z,10.90
2018-10-02T19:44:48.802Z,10.80
2018-10-02T19:47:18.236Z,10.70
2018-10-02T19:49:47.329Z,10.70
2018-10-02T19:52:17.327Z,10.70
2018-10-02T19:54:47.622Z,10.70
2018-10-02T19:57:19.010Z,10.60
2018-10-02T19:59:48.028Z,10.70
2018-10-02T20:02:16.936Z,10.70
2018-10-02T20:04:45.900Z,10.70
2018-10-02T20:07:15.100Z,10.70
2018-10-02T20:09:44.266Z,10.70
2018-10-02T20:12:13.395Z,10.70
2018-10-02T20:14:42.599Z,10.70
2018-10-02T20:17:11.626Z,10.60
2018-10-02T20:19:40.572Z,10.50
2018-10-02T20:22:10.053Z,10.40
2018-10-02T20:24:39.027Z,10.30
2018-10-02T20:27:08.140Z,10.20
2018-10-02T20:29:37.048Z,10.10
2018-10-02T20:32:05.979Z,10.10
2018-10-02T20:34:35.172Z,10.10
2018-10-02T20:37:04.583Z,10.00
2018-10-02T20:39:33.509Z,10.00
2018-10-02T20:42:02.715Z,10.00
2018-10-02T20:44:41.264Z,10.00
2018-10-02T20:47:10.818Z,10.00
2018-10-02T20:49:40.146Z,10.00
2018-10-02T20:52:09.120Z,10.10
2018-10-02T20:54:38.161Z,10.10
2018-10-02T20:57:07.212Z,10.10
2018-10-02T20:59:36.571Z,10.10
2018-10-02T21:02:20.188Z,10.10
2018-10-02T21:04:49.249Z,10.10
2018-10-02T21:07:18.236Z,10.20
2018-10-02T21:09:47.559Z,10.20
2018-10-02T21:12:16.714Z,10.20
2018-10-02T21:14:45.898Z,10.20
2018-10-02T21:17:15.277Z,10.20
2018-10-02T21:19:44.396Z,10.30
2018-10-02T21:22:13.546Z,10.30
2018-10-02T21:24:42.614Z,10.30
2018-10-02T21:27:11.941Z,10.30
2018-10-02T21:29:40.908Z,10.30
2018-10-02T21:32:09.886Z,10.30
2018-10-02T21:34:39.480Z,10.30
2018-10-02T21:37:08.388Z,10.30
2018-10-02T21:39:37.468Z,10.20
2018-10-02T21:42:06.441Z,10.00
2018-10-02T21:44:35.405Z,9.90
2018-10-02T21:47:04.501Z,9.80
2018-10-02T21:49:34.614Z,9.60
2018-10-02T21:52:03.558Z,9.40
2018-10-02T21:54:32.609Z,9.50
2018-10-02T21:57:01.659Z,9.50
2018-10-02T21:59:31.001Z,9.50
2018-10-02T22:02:00.949Z,9.50
2018-10-02T22:04:30.211Z,9.50
2018-10-02T22:06:59.763Z,9.50
2018-10-02T22:09:29.829Z,9.50
2018-10-02T22:11:59.131Z,9.50
2018-10-02T22:14:29.504Z,9.50
2018-10-02T22:16:58.616Z,9.50
2018-10-02T22:19:27.918Z,9.50
2018-10-02T22:21:57.057Z,9.50
2018-10-02T22:24:26.294Z,9.50
2018-10-02T22:26:56.028Z,9.60
2018-10-02T22:29:25.044Z,9.60
2018-10-02T22:31:54.026Z,9.50
2018-10-02T22:34:23.132Z,9.50
2018-10-02T22:36:52.091Z,9.40
2018-10-02T22:39:21.097Z,9.40
2018-10-02T22:41:50.294Z,9.40
2018-10-02T22:44:19.399Z,9.40
2018-10-02T22:46:48.347Z,9.30
2018-10-02T22:49:17.230Z,9.30
2018-10-02T22:51:46.186Z,9.30
2018-10-02T22:54:15.167Z,9.40
2018-10-02T22:56:44.098Z,9.40
2018-10-02T22:59:13.208Z,9.40
2018-10-02T23:01:42.645Z,9.30
2018-10-02T23:04:11.784Z,9.30
2018-10-02T23:06:41.125Z,9.30
2018-10-02T23:09:11.933Z,9.20
2018-10-02T23:11:41.859Z,9.20
2018-10-02T23:14:11.885Z,9.10
2018-10-02T23:16:40.974Z,9.10
2018-10-02T23:19:10.281Z,9.20
2018-10-02T23:21:39.573Z,9.10
2018-10-02T23:24:08.976Z,9.20
2018-10-02T23:26:38.176Z,9.20
2018-10-02T23:29:07.267Z,9.30
2018-10-02T23:31:36.271Z,9.30
2018-10-02T23:34:05.322Z,9.30
2018-10-02T23:36:34.657Z,9.30
2018-10-02T23:39:04.319Z,9.30
2018-10-02T23:41:33.343Z,9.30
2018-10-02T23:44:02.304Z,9.20
2018-10-02T23:46:31.525Z,9.20
2018-10-02T23:49:00.941Z,9.20
2018-10-02T23:51:30.192Z,9.30
2018-10-02T23:53:59.399Z,9.30
2018-10-02T23:56:43.063Z,9.30
2018-10-02T23:59:12.460Z,9.30
